createdAt,value
2023-02-01T00:00:53.189Z,81.04
2023-02-01T00:03:55.929Z,81.51
2023-02-01T00:06:58.345Z,81.74
2023-02-01T00:10:01.054Z,82.36
2023-02-01T00:13:03.431Z,82.44
2023-02-01T00:16:27.143Z,82.47
2023-02-01T00:19:29.492Z,81.98
2023-02-01T00:22:32.079Z,82.05
2023-02-01T00:25:34.532Z,82.04
2023-02-01T00:28:37.340Z,82.04
2023-02-01T00:31:40.035Z,82.10
2023-02-01T00:34:43.137Z,82.04
2023-02-01T00:37:45.440Z,81.75
2023-02-01T00:40:48.150Z,81.43
2023-02-01T00:43:51.607Z,80.96
2023-02-01T00:46:54.383Z,80.83
2023-02-01T00:49:56.857Z,80.99
2023-02-01T00:52:59.638Z,81.23
2023-02-01T00:56:03.054Z,81.01
2023-02-01T00:59:05.696Z,81.17
2023-02-01T01:02:08.111Z,80.73
2023-02-01T01:05:10.792Z,80.53
2023-02-01T01:08:13.531Z,80.11
2023-02-01T01:11:19.334Z,79.34
2023-02-01T01:14:22.513Z,79.04
2023-02-01T01:17:26.918Z,78.64
2023-02-01T01:20:29.196Z,78.76
2023-02-01T01:23:32.350Z,78.82
2023-02-01T01:26:34.751Z,78.72
2023-02-01T01:29:37.504Z,79.09
2023-02-01T01:32:39.889Z,78.90
2023-02-01T01:35:42.726Z,78.37
2023-02-01T01:38:45.108Z,77.71
2023-02-01T01:41:47.989Z,77.70
2023-02-01T01:45:06.077Z,76.85
2023-02-01T01:48:22.031Z,77.15
2023-02-01T01:51:26.995Z,77.66
2023-02-01T01:54:34.316Z,78.11
2023-02-01T01:57:43.200Z,77.60
2023-02-01T02:00:47.307Z,77.75
2023-02-01T02:03:52.926Z,77.46
2023-02-01T02:07:06.372Z,78.05
2023-02-01T02:10:12.210Z,78.21
2023-02-01T02:13:17.214Z,77.34
2023-02-01T02:16:27.302Z,76.95
2023-02-01T02:19:51.806Z,77.29
2023-02-01T02:23:12.751Z,76.41
2023-02-01T02:26:47.984Z,75.90
2023-02-01T02:30:02.233Z,74.89
2023-02-01T02:33:23.596Z,73.94
2023-02-01T02:36:38.249Z,73.80
2023-02-01T02:40:10.248Z,73.24
2023-02-01T02:43:42.945Z,74.29
2023-02-01T02:47:10.148Z,74.29
2023-02-01T02:50:37.015Z,74.02
2023-02-01T02:54:04.762Z,73.58
2023-02-01T02:57:29.497Z,72.42
2023-02-01T03:00:53.807Z,72.49
2023-02-01T03:04:15.579Z,72.12
2023-02-01T03:08:02.474Z,72.12
2023-02-01T03:11:11.783Z,71.61
2023-02-01T03:14:16.568Z,71.57
2023-02-01T03:17:27.066Z,71.19
2023-02-01T03:20:31.386Z,71.04
2023-02-01T03:23:37.932Z,71.69
2023-02-01T03:26:45.726Z,71.22
2023-02-01T03:30:29.382Z,71.18
2023-02-01T03:33:32.980Z,71.03
2023-02-01T03:37:00.834Z,70.88
2023-02-01T03:40:09.493Z,71.19
2023-02-01T03:43:17.987Z,71.46
2023-02-01T03:46:35.487Z,71.27
2023-02-01T03:49:43.548Z,70.66
2023-02-01T03:52:55.242Z,71.03
2023-02-01T03:55:58.259Z,71.02
2023-02-01T03:59:01.261Z,71.51
2023-02-01T04:02:03.878Z,71.53
2023-02-01T04:05:06.964Z,71.37
2023-02-01T04:08:09.411Z,71.20
2023-02-01T04:11:12.158Z,71.57
2023-02-01T04:14:14.729Z,71.49
2023-02-01T04:17:17.475Z,71.43
2023-02-01T04:20:20.633Z,71.52
2023-02-01T04:23:23.469Z,71.18
2023-02-01T04:26:26.349Z,71.47
2023-02-01T04:29:29.068Z,71.27
2023-02-01T04:32:31.621Z,71.07
2023-02-01T04:35:34.450Z,71.36
2023-02-01T04:38:36.981Z,71.79
2023-02-01T04:41:39.823Z,71.68
2023-02-01T04:44:42.937Z,71.84
2023-02-01T04:47:45.599Z,72.12
2023-02-01T04:50:49.481Z,71.86
2023-02-01T04:53:52.094Z,71.66
2023-02-01T04:56:54.388Z,71.79
2023-02-01T04:59:57.240Z,71.70
2023-02-01T05:02:59.651Z,71.39
2023-02-01T05:06:05.047Z,71.60
2023-02-01T05:09:07.447Z,71.87
2023-02-01T05:12:30.064Z,71.67
2023-02-01T05:15:33.212Z,72.10
2023-02-01T05:18:35.912Z,70.97
2023-02-01T05:21:38.264Z,70.93
2023-02-01T05:24:40.873Z,70.52
2023-02-01T05:27:43.653Z,70.56
2023-02-01T05:30:46.311Z,70.80
2023-02-01T05:33:48.740Z,70.98
2023-02-01T05:36:51.464Z,70.71
2023-02-01T05:39:53.885Z,71.21
2023-02-01T05:42:56.567Z,70.99
2023-02-01T05:45:58.995Z,71.32
2023-02-01T05:49:01.805Z,71.16
2023-02-01T05:52:04.346Z,71.23
2023-02-01T05:55:07.317Z,71.34
2023-02-01T05:58:09.640Z,71.51
2023-02-01T06:01:12.480Z,71.37
2023-02-01T06:04:15.121Z,71.44
2023-02-01T06:07:18.169Z,71.36
2023-02-01T06:10:22.035Z,71.17
2023-02-01T06:13:24.665Z,71.06
2023-02-01T06:16:27.826Z,70.72
2023-02-01T06:19:30.453Z,71.09
2023-02-01T06:22:33.604Z,71.12
2023-02-01T06:25:36.038Z,71.30
2023-02-01T06:28:39.756Z,71.14
2023-02-01T06:31:43.852Z,71.47
2023-02-01T06:34:47.077Z,71.83
2023-02-01T06:37:49.800Z,71.42
2023-02-01T06:40:57.626Z,71.46
2023-02-01T06:44:00.120Z,71.36
2023-02-01T06:47:06.235Z,71.38
2023-02-01T06:50:10.935Z,71.42
2023-02-01T06:53:13.635Z,71.30
2023-02-01T06:56:16.027Z,70.40
2023-02-01T06:59:18.703Z,70.25
2023-02-01T07:02:21.226Z,69.90
2023-02-01T07:05:23.962Z,69.38
2023-02-01T07:08:29.214Z,69.36
2023-02-01T07:11:32.991Z,69.43
2023-02-01T07:14:35.341Z,69.67
2023-02-01T07:17:38.039Z,69.20
2023-02-01T07:20:40.446Z,68.91
2023-02-01T07:23:43.019Z,68.86
2023-02-01T07:26:45.365Z,68.25
2023-02-01T07:29:48.012Z,67.94
2023-02-01T07:32:50.384Z,67.56
2023-02-01T07:35:53.095Z,67.58
2023-02-01T07:38:56.788Z,66.86
2023-02-01T07:41:59.698Z,66.46
2023-02-01T07:45:19.939Z,66.21
2023-02-01T07:48:25.848Z,65.90
2023-02-01T07:51:28.240Z,65.98
2023-02-01T07:54:30.888Z,65.85
2023-02-01T07:57:33.274Z,65.45
2023-02-01T08:00:54.511Z,65.00
2023-02-01T08:04:02.786Z,64.51
2023-02-01T08:07:05.125Z,64.23
2023-02-01T08:10:11.753Z,64.10
2023-02-01T08:13:14.338Z,64.24
2023-02-01T08:16:19.145Z,63.90
2023-02-01T08:19:21.607Z,63.79
2023-02-01T08:22:24.254Z,63.25
2023-02-01T08:25:26.701Z,63.17
2023-02-01T08:28:29.668Z,62.92
2023-02-01T08:31:33.152Z,63.29
2023-02-01T08:34:36.005Z,63.18
2023-02-01T08:37:38.473Z,63.05
2023-02-01T08:40:42.482Z,63.41
2023-02-01T08:43:45.603Z,63.77
2023-02-01T08:46:48.235Z,63.97
2023-02-01T08:49:50.573Z,64.15
2023-02-01T08:52:54.375Z,64.42
2023-02-01T08:55:56.792Z,64.91
2023-02-01T08:58:59.443Z,65.04
2023-02-01T09:02:01.902Z,64.34
2023-02-01T09:05:05.166Z,64.46
2023-02-01T09:08:10.320Z,64.61
2023-02-01T09:11:16.622Z,64.39
2023-02-01T09:14:18.923Z,64.49
2023-02-01T09:17:21.537Z,63.66
2023-02-01T09:20:25.581Z,62.74
2023-02-01T09:23:28.517Z,61.93
2023-02-01T09:26:32.924Z,61.47
2023-02-01T09:29:35.913Z,61.36
2023-02-01T09:32:38.329Z,62.08
2023-02-01T09:35:41.015Z,62.08
2023-02-01T09:38:52.319Z,62.21
2023-02-01T09:42:16.024Z,62.68
2023-02-01T09:45:59.885Z,62.68
2023-02-01T09:49:11.598Z,63.75
2023-02-01T09:52:16.246Z,64.69
2023-02-01T09:55:31.378Z,65.53
2023-02-01T09:58:43.237Z,65.59
2023-02-01T10:01:45.933Z,64.21
2023-02-01T10:04:48.902Z,62.54
2023-02-01T10:08:14.017Z,62.50
2023-02-01T10:11:25.363Z,62.10
2023-02-01T10:15:05.006Z,62.07
2023-02-01T10:18:25.008Z,62.21
2023-02-01T10:21:27.320Z,62.09
2023-02-01T10:24:36.634Z,62.21
2023-02-01T10:27:41.414Z,62.84
2023-02-01T10:30:48.835Z,63.38
2023-02-01T10:33:59.018Z,64.15
2023-02-01T10:37:19.846Z,64.08
2023-02-01T10:40:25.978Z,63.50
2023-02-01T10:43:29.350Z,63.57
2023-02-01T10:46:32.868Z,63.41
2023-02-01T10:49:42.667Z,63.42
2023-02-01T10:53:11.883Z,63.30
2023-02-01T10:56:14.871Z,62.92
2023-02-01T10:59:24.745Z,63.03
2023-02-01T11:02:35.558Z,62.72
2023-02-01T11:05:46.253Z,62.01
2023-02-01T11:08:52.891Z,61.50
2023-02-01T11:12:00.653Z,60.51
2023-02-01T11:15:29.715Z,60.74
2023-02-01T11:18:38.669Z,61.09
2023-02-01T11:21:44.388Z,62.48
2023-02-01T11:24:47.826Z,63.12
2023-02-01T11:27:55.369Z,65.00
2023-02-01T11:31:01.525Z,66.50
2023-02-01T11:34:13.537Z,68.53
2023-02-01T11:37:30.145Z,69.06
2023-02-01T11:40:38.323Z,70.23
2023-02-01T11:43:59.930Z,71.14
2023-02-01T11:47:24.321Z,72.53
2023-02-01T11:50:30.024Z,73.66
2023-02-01T11:53:51.768Z,74.15
2023-02-01T11:57:14.504Z,74.95
2023-02-01T12:00:20.224Z,75.21
2023-02-01T12:04:10.196Z,76.58
2023-02-01T12:07:12.539Z,77.30
2023-02-01T12:10:39.969Z,76.49
2023-02-01T12:14:13.329Z,75.93
2023-02-01T12:17:47.269Z,77.43
2023-02-01T12:20:58.857Z,77.21
2023-02-01T12:24:10.331Z,77.33
2023-02-01T12:27:18.441Z,77.77
2023-02-01T12:30:21.477Z,78.54
2023-02-01T12:33:39.080Z,78.75
2023-02-01T12:36:58.419Z,80.32
2023-02-01T12:40:23.190Z,81.20
2023-02-01T12:43:41.079Z,82.17
2023-02-01T12:46:49.867Z,83.06
2023-02-01T12:50:01.366Z,83.69
2023-02-01T12:53:31.039Z,83.43
2023-02-01T12:56:44.275Z,84.21
2023-02-01T13:00:13.152Z,83.94
2023-02-01T13:03:27.658Z,84.17
2023-02-01T13:06:37.124Z,82.70
2023-02-01T13:09:54.716Z,82.13
2023-02-01T13:13:04.771Z,80.91
2023-02-01T13:16:18.132Z,80.58
2023-02-01T13:19:42.797Z,81.12
2023-02-01T13:22:55.465Z,82.08
2023-02-01T13:25:58.139Z,82.31
2023-02-01T13:29:06.311Z,82.09
2023-02-01T13:32:11.566Z,82.23
2023-02-01T13:35:36.099Z,82.39
2023-02-01T13:38:55.989Z,82.86
2023-02-01T13:42:01.474Z,82.74
2023-02-01T13:45:21.819Z,83.03
2023-02-01T13:48:39.848Z,83.77
2023-02-01T13:51:49.506Z,83.67
2023-02-01T13:55:03.537Z,85.11
2023-02-01T13:58:31.812Z,84.31
2023-02-01T14:01:36.087Z,84.38
2023-02-01T14:04:50.260Z,85.59
2023-02-01T14:08:07.208Z,85.90
2023-02-01T14:11:36.506Z,85.82
2023-02-01T14:14:40.689Z,84.00
2023-02-01T14:17:45.665Z,82.21
2023-02-01T14:20:54.088Z,80.25
2023-02-01T14:24:16.571Z,80.19
2023-02-01T14:27:22.796Z,80.22
2023-02-01T14:30:26.022Z,79.97
2023-02-01T14:33:29.454Z,79.91
2023-02-01T14:36:52.027Z,80.13
2023-02-01T14:40:04.309Z,80.54
2023-02-01T14:43:09.564Z,80.56
2023-02-01T14:47:22.377Z,80.17
2023-02-01T14:50:28.076Z,78.71
2023-02-01T14:53:35.555Z,77.14
2023-02-01T14:56:38.379Z,76.97
2023-02-01T14:59:41.203Z,75.17
2023-02-01T15:02:46.605Z,75.14
2023-02-01T15:05:56.697Z,75.54
2023-02-01T15:09:03.922Z,76.44
2023-02-01T15:12:12.289Z,77.00
2023-02-01T15:15:25.061Z,77.78
2023-02-01T15:18:27.793Z,78.04
2023-02-01T15:21:32.840Z,76.64
2023-02-01T15:24:35.433Z,76.25
2023-02-01T15:27:38.605Z,75.13
2023-02-01T15:30:41.166Z,74.85
2023-02-01T15:33:58.362Z,75.54
2023-02-01T15:37:07.031Z,76.62
2023-02-01T15:40:12.792Z,76.92
2023-02-01T15:43:15.583Z,76.94
2023-02-01T15:46:23.788Z,77.18
2023-02-01T15:49:30.808Z,77.10
2023-02-01T15:52:40.150Z,76.09
2023-02-01T15:55:43.899Z,75.77
2023-02-01T15:58:52.962Z,75.55
2023-02-01T16:01:55.491Z,74.47
2023-02-01T16:04:58.269Z,74.04
2023-02-01T16:08:11.773Z,73.58
2023-02-01T16:11:21.559Z,73.83
2023-02-01T16:14:24.875Z,74.85
2023-02-01T16:17:27.524Z,75.69
2023-02-01T16:20:31.004Z,76.38
2023-02-01T16:23:33.596Z,77.43
2023-02-01T16:26:36.510Z,77.37
2023-02-01T16:29:40.810Z,77.37
2023-02-01T16:32:44.367Z,77.99
2023-02-01T16:35:48.228Z,78.31
2023-02-01T16:38:50.663Z,77.79
2023-02-01T16:41:53.361Z,78.03
2023-02-01T16:44:55.719Z,78.16
2023-02-01T16:47:58.523Z,77.75
2023-02-01T16:51:04.049Z,76.88
2023-02-01T16:54:06.768Z,77.24
2023-02-01T16:57:14.581Z,76.97
2023-02-01T17:00:24.601Z,77.43
2023-02-01T17:03:27.619Z,76.88
2023-02-01T17:06:33.452Z,76.75
2023-02-01T17:09:39.525Z,77.26
2023-02-01T17:12:42.180Z,77.40
2023-02-01T17:16:25.211Z,76.52
2023-02-01T17:19:28.412Z,75.67
2023-02-01T17:22:30.979Z,75.65
2023-02-01T17:25:33.712Z,75.48
2023-02-01T17:28:36.209Z,75.30
2023-02-01T17:31:43.139Z,75.15
2023-02-01T17:34:45.846Z,74.68
2023-02-01T17:37:49.662Z,73.90
2023-02-01T17:40:52.832Z,73.64
2023-02-01T17:43:55.780Z,73.58
2023-02-01T17:46:59.814Z,73.74
2023-02-01T17:50:03.046Z,73.11
2023-02-01T17:53:09.857Z,72.03
2023-02-01T17:56:18.358Z,72.14
2023-02-01T17:59:20.729Z,71.50
2023-02-01T18:02:25.455Z,71.04
2023-02-01T18:05:43.652Z,70.84
2023-02-01T18:08:46.531Z,70.01
2023-02-01T18:11:50.479Z,68.67
2023-02-01T18:14:52.825Z,68.16
2023-02-01T18:17:55.532Z,68.51
2023-02-01T18:20:58.669Z,69.26
2023-02-01T18:24:02.007Z,69.01
2023-02-01T18:27:04.336Z,69.25
2023-02-01T18:30:07.807Z,69.20
2023-02-01T18:33:16.849Z,69.00
2023-02-01T18:36:19.721Z,68.39
2023-02-01T18:39:22.123Z,68.69
2023-02-01T18:42:24.775Z,68.39
2023-02-01T18:45:37.735Z,68.71
2023-02-01T18:48:41.815Z,68.80
2023-02-01T18:51:44.850Z,69.69
2023-02-01T18:54:59.045Z,69.88
2023-02-01T18:58:06.742Z,70.58
2023-02-01T19:01:15.884Z,70.45
2023-02-01T19:04:20.147Z,70.97
2023-02-01T19:07:23.945Z,70.25
2023-02-01T19:10:27.584Z,69.61
2023-02-01T19:13:31.566Z,69.29
2023-02-01T19:16:36.131Z,69.28
2023-02-01T19:19:40.419Z,69.06
2023-02-01T19:22:44.090Z,68.73
2023-02-01T19:25:48.734Z,68.48
2023-02-01T19:28:51.137Z,68.40
2023-02-01T19:31:53.934Z,68.26
2023-02-01T19:34:56.290Z,67.17
2023-02-01T19:37:58.962Z,67.04
2023-02-01T19:41:01.814Z,66.57
2023-02-01T19:44:07.207Z,66.01
2023-02-01T19:47:10.436Z,66.35
2023-02-01T19:50:21.698Z,66.35
2023-02-01T19:53:27.130Z,66.21
2023-02-01T19:56:29.810Z,66.19
2023-02-01T19:59:32.224Z,65.77
2023-02-01T20:02:34.124Z,65.49
2023-02-01T20:05:37.016Z,65.92
2023-02-01T20:08:39.411Z,65.94
2023-02-01T20:11:42.263Z,66.41
2023-02-01T20:14:44.884Z,66.76
2023-02-01T20:17:47.783Z,66.66
2023-02-01T20:20:50.187Z,66.90
2023-02-01T20:23:52.941Z,67.15
2023-02-01T20:26:56.190Z,67.41
2023-02-01T20:29:59.136Z,67.88
2023-02-01T20:33:01.597Z,67.75
2023-02-01T20:36:04.698Z,67.83
2023-02-01T20:39:07.151Z,69.05
2023-02-01T20:42:09.796Z,70.84
2023-02-01T20:45:12.171Z,71.84
2023-02-01T20:48:15.952Z,72.48
2023-02-01T20:51:20.631Z,73.15
2023-02-01T20:54:24.320Z,74.15
2023-02-01T20:57:26.717Z,75.51
2023-02-01T21:00:33.462Z,77.34
2023-02-01T21:03:36.414Z,77.63
2023-02-01T21:06:39.099Z,78.53
2023-02-01T21:09:43.301Z,79.24
2023-02-01T21:12:45.994Z,78.63
2023-02-01T21:15:48.428Z,78.87
2023-02-01T21:18:52.232Z,78.56
2023-02-01T21:21:54.733Z,78.21
2023-02-01T21:24:57.360Z,78.19
2023-02-01T21:27:59.693Z,77.90
2023-02-01T21:31:02.425Z,78.06
2023-02-01T21:34:06.802Z,78.31
2023-02-01T21:37:09.557Z,77.85
2023-02-01T21:40:12.234Z,78.35
2023-02-01T21:43:14.847Z,79.13
2023-02-01T21:46:18.212Z,78.92
2023-02-01T21:49:21.226Z,79.65
2023-02-01T21:52:24.175Z,80.17
2023-02-01T21:55:26.890Z,80.62
2023-02-01T21:58:29.407Z,81.77
2023-02-01T22:01:32.378Z,81.31
2023-02-01T22:04:35.190Z,81.46
2023-02-01T22:07:37.470Z,81.76
2023-02-01T22:10:42.061Z,82.09
2023-02-01T22:13:44.401Z,81.14
2023-02-01T22:16:47.721Z,82.12
2023-02-01T22:19:50.129Z,82.04
2023-02-01T22:22:52.763Z,81.13
2023-02-01T22:26:03.194Z,80.58
2023-02-01T22:29:07.719Z,80.19
2023-02-01T22:32:10.232Z,79.73
2023-02-01T22:35:13.182Z,79.54
2023-02-01T22:38:19.018Z,79.07
2023-02-01T22:41:21.770Z,79.44
2023-02-01T22:44:24.209Z,78.94
2023-02-01T22:47:27.590Z,78.49
2023-02-01T22:50:30.114Z,78.58
2023-02-01T22:53:33.585Z,78.30
2023-02-01T22:56:37.401Z,77.60
2023-02-01T22:59:40.212Z,77.66
2023-02-01T23:02:44.007Z,78.25
2023-02-01T23:05:47.001Z,78.62
2023-02-01T23:08:49.472Z,78.49
2023-02-01T23:15:08.584Z,77.43
2023-02-01T23:18:11.236Z,77.73
2023-02-01T23:21:16.649Z,77.55
2023-02-01T23:24:19.289Z,77.49
2023-02-01T23:27:21.999Z,77.12
2023-02-01T23:30:24.681Z,77.36
2023-02-01T23:33:28.001Z,77.57
2023-02-01T23:36:32.916Z,78.51
2023-02-01T23:39:35.530Z,78.71
2023-02-01T23:42:38.201Z,79.12
2023-02-01T23:45:40.571Z,79.67
2023-02-01T23:48:45.122Z,79.47
2023-02-01T23:51:51.549Z,79.83
2023-02-01T23:54:54.167Z,79.63
2023-02-01T23:57:56.471Z,79.33
